Terminal Aerodrome Forecast
Issued by NWS Tuscon, AZ

Home | Current Version | Previous Version | Text Only | Print | Product List | Glossary On
Versions: 1 2 3 4 5 6 7 8 9 10 11 12 13 14 15 16 17
000
FTUS45 KTWC 181137
TAFDUG
TAF
KDUG 181137Z 1812/1912 18007KT P6SM FEW020 BKN035
      TEMPO 1812/1814 3SM BR BKN025
     FM181600 16006KT P6SM FEW050 BKN090
     FM182200 26007KT P6SM VCSH BKN060
     FM190100 36006KT P6SM SCT060 BKN100=

USA.gov is the U.S. government's official web portal to all federal, state and local government web resources and services.